Flight Track Log - Related Links

Times and Time Zones

All times are in EDT time to prevent confusion due to time zone crossing. See the N6056Y flight status page for this flight to view local times or setup timezone preferences in your user account.

Time Position Orientation Groundspeed Altitude Reporting Facility
EDT Latitude Longitude Course Direction KTS MPH feet Rate Location/Type
Thu 02:55:44 PM 35.9456 -85.0519 56° Northeast 160 184 4,100  Level Atlanta Center
Thu 02:56:44 PM 35.9750 -85.0214 40° Northeast 145 167 4,900 800 Climbing Atlanta Center
Thu 02:57:44 PM 36.0025 -84.9858 46° Northeast 138 159 5,700 750 Climbing Atlanta Center
Thu 02:58:44 PM 36.0236 -84.9475 56° Northeast 138 159 6,400 750 Climbing Atlanta Center
Thu 02:59:44 PM 36.0447 -84.9067 57° Northeast 132 152 7,200 750 Climbing Atlanta Center
Thu 03:00:44 PM 36.0681 -84.8683 53° Northeast 132 152 7,900 700 Climbing Atlanta Center
Thu 03:01:00 PM 36.1102 -84.7644 56° Northeast  Level FlightAware Approximate
Thu 03:01:44 PM 36.0869 -84.8250 62° Northeast 132 152 8,600  Level Atlanta Center
Thu 03:02:44 PM 36.1103 -84.7842 55° Northeast 132 152 9,200 600 Climbing Atlanta Center
Thu 03:03:44 PM 36.1314 -84.7431 58° Northeast 132 152 9,800 444 Climbing Atlanta Center
Thu 03:04:05 PM 36.1369 -84.7336 54° Northeast 141 162 9,800 361 Level Indianapolis Center
Thu 03:05:07 PM 36.1594 -84.6914 57° Northeast 145 167 10,300 581 Climbing Indianapolis Center
Thu 03:06:09 PM 36.1847 -84.6414 58° Northeast 144 166 11,000 290 Climbing Indianapolis Center
Thu 03:07:11 PM 36.2103 -84.5947 56° Northeast 161 185 10,900  Descending Indianapolis Center
Thu 03:08:13 PM 36.2422 -84.5494 49° Northeast 173 199 11,000  Climbing Indianapolis Center
Thu 03:09:15 PM 36.2753 -84.5050 47° Northeast 175 201 10,900  Descending Indianapolis Center
Thu 03:10:17 PM 36.3108 -84.4656 42° Northeast 172 198 11,000 48 Climbing Indianapolis Center
Thu 03:11:20 PM 36.3508 -84.4339 33° Northeast 169 194 11,000  Level Indianapolis Center
Thu 03:12:22 PM 36.3842 -84.3783 53° Northeast 169 194 11,000  Level Indianapolis Center
Thu 03:13:24 PM 36.4069 -84.3253 62° Northeast 174 200 11,000  Level Indianapolis Center
Thu 03:14:26 PM 36.4261 -84.2669 68° East 181 208 11,000 194 Level Indianapolis Center
Thu 03:15:28 PM 36.4422 -84.2089 71° East 178 205 11,400 387 Climbing Indianapolis Center
Thu 03:16:30 PM 36.4544 -84.1547 74° East 167 192 11,800 290 Climbing Indianapolis Center
Thu 03:17:32 PM 36.4658 -84.0989 76° East 166 191 12,000 97 Climbing Indianapolis Center
Thu 03:18:34 PM 36.4867 -84.0306 69° East 176 203 12,000  Level Indianapolis Center
Thu 03:19:36 PM 36.5197 -83.9847 48° Northeast 176 203 12,000  Level Indianapolis Center
Thu 03:20:38 PM 36.5494 -83.9356 53° Northeast 178 205 12,000  Level Indianapolis Center
Thu 03:21:40 PM 36.5758 -83.8850 57° Northeast 175 201 12,000  Level Indianapolis Center
Thu 03:22:42 PM 36.6017 -83.8314 59° Northeast 179 206 12,000  Level Indianapolis Center
Thu 03:23:44 PM 36.6289 -83.7806 56° Northeast 176 203 12,000  Level Indianapolis Center
Thu 03:24:46 PM 36.6603 -83.7181 58° Northeast 180 207 12,000  Level Indianapolis Center
Thu 03:25:48 PM 36.6922 -83.6661 53° Northeast 185 213 12,000  Level Indianapolis Center
Thu 03:26:50 PM 36.7228 -83.6169 52° Northeast 182 209 12,000  Level Indianapolis Center
Thu 03:27:53 PM 36.7531 -83.5667 53° Northeast 181 208 12,000  Level Indianapolis Center
Thu 03:28:55 PM 36.7850 -83.5156 52° Northeast 185 213 12,000  Level Indianapolis Center
Thu 03:29:57 PM 36.8206 -83.4522 55° Northeast 190 219 12,000  Level Indianapolis Center
Thu 03:30:59 PM 36.8528 -83.4019 51° Northeast 186 214 12,000  Level Indianapolis Center
Thu 03:32:01 PM 36.8847 -83.3506 52° Northeast 188 216 12,000  Level Indianapolis Center
Thu 03:33:03 PM 36.9178 -83.2989 51° Northeast 191 220 12,000  Level Indianapolis Center
Thu 03:34:05 PM 36.9506 -83.2497 50° Northeast 188 216 12,000  Level Indianapolis Center
Thu 03:35:07 PM 36.9828 -83.1983 52° Northeast 189 217 12,000  Level Indianapolis Center
Thu 03:36:09 PM 37.0197 -83.1383 52° Northeast 187 215 12,000  Level Indianapolis Center
Thu 03:37:11 PM 37.0519 -83.0861 52° Northeast 188 216 12,000  Level Indianapolis Center
Thu 03:38:13 PM 37.0842 -83.0333 53° Northeast 191 220 12,000  Level Indianapolis Center
Thu 03:39:15 PM 37.1106 -82.9753 60° Northeast 190 219 12,000  Level Indianapolis Center
Thu 03:40:17 PM 37.1311 -82.9128 68° East 191 220 12,000  Level Indianapolis Center
Thu 03:41:19 PM 37.1486 -82.8486 71° East 195 224 12,000  Level Indianapolis Center
Thu 03:42:21 PM 37.1681 -82.7858 69° East 193 222 12,000  Level Indianapolis Center
Thu 03:43:23 PM 37.1914 -82.7144 68° East 191 220 12,000  Level Indianapolis Center
Thu 03:44:25 PM 37.2097 -82.6542 69° East 185 213 12,000  Level Indianapolis Center
Thu 03:45:28 PM 37.2258 -82.5950 71° East 181 208 12,000  Level Indianapolis Center
Thu 03:46:30 PM 37.2319 -82.5331 83° East 178 205 12,000  Level Indianapolis Center
Thu 03:47:32 PM 37.2386 -82.4706 82° East 180 207 12,000  Level Indianapolis Center
Thu 03:48:34 PM 37.2464 -82.4081 81° East 184 212 12,000 -48 Level Indianapolis Center
Thu 03:49:36 PM 37.2644 -82.3339 73° East 191 220 11,900 -48 Descending Indianapolis Center
Thu 03:50:38 PM 37.2642 -82.2717 90° East 192 221 11,900  Level Indianapolis Center
Thu 03:51:40 PM 37.2906 -82.2153 60° Northeast 185 213 11,900  Level Indianapolis Center
Thu 03:52:42 PM 37.3053 -82.1525 74° East 185 213 11,900  Level Indianapolis Center
Thu 03:53:44 PM 37.3242 -82.0925 68° East 185 213 11,900  Level Indianapolis Center
Thu 03:54:46 PM 37.3450 -82.0250 69° East 178 205 11,900  Level Indianapolis Center
Thu 03:55:48 PM 37.3639 -81.9686 67° East 176 203 11,900  Level Indianapolis Center
Thu 03:56:50 PM 37.3969 -81.9219 48° Northeast 177 204 11,900  Level Indianapolis Center
Thu 03:57:52 PM 37.4303 -81.8744 49° Northeast 179 206 11,900  Level Indianapolis Center
Thu 03:58:54 PM 37.4644 -81.8283 47° Northeast 180 207 11,900  Level Indianapolis Center
Thu 03:59:56 PM 37.4994 -81.7839 45° Northeast 178 205 11,900 48 Level Indianapolis Center
Thu 04:00:58 PM 37.5422 -81.7339 43° Northeast 178 205 12,000 48 Climbing Indianapolis Center
Thu 04:02:00 PM 37.5800 -81.6900 43° Northeast 183 211 12,000  Level Indianapolis Center
Thu 04:03:02 PM 37.6139 -81.6436 47° Northeast 181 208 12,000  Level Indianapolis Center
Thu 04:04:04 PM 37.6506 -81.5986 44° Northeast 182 209 12,000 -48 Level Indianapolis Center
Thu 04:05:06 PM 37.6844 -81.5544 46° Northeast 175 201 11,900  Descending Indianapolis Center
Thu 04:06:08 PM 37.7167 -81.4972 55° Northeast 171 197 12,000 48 Climbing Indianapolis Center
Thu 04:07:10 PM 37.7358 -81.4442 65° Northeast 175 201 12,000 -48 Level Indianapolis Center
Thu 04:08:13 PM 37.7542 -81.3889 67° East 176 203 11,900 -48 Descending Indianapolis Center
Thu 04:09:16 PM 37.7922 -81.3356 48° Northeast 174 200 11,900 48 Level Indianapolis Center
Thu 04:10:17 PM 37.8214 -81.2869 53° Northeast 177 204 12,000  Climbing Indianapolis Center
Thu 04:11:19 PM 37.8539 -81.2347 52° Northeast 186 214 11,900 -48 Descending Indianapolis Center
Thu 04:12:21 PM 37.8872 -81.1861 49° Northeast 184 212 11,900  Level Indianapolis Center
Thu 04:13:23 PM 37.9186 -81.1344 52° Northeast 186 214 11,900  Level Indianapolis Center
Thu 04:14:25 PM 37.9467 -81.0783 58° Northeast 188 216 11,900  Level Indianapolis Center
Thu 04:15:27 PM 37.9789 -81.0114 59° Northeast 185 213 11,900  Level Indianapolis Center
Thu 04:16:29 PM 38.0053 -80.9553 59° Northeast 187 215 11,900  Level Indianapolis Center
Thu 04:17:31 PM 38.0322 -80.8986 59° Northeast 189 217 11,900  Level Indianapolis Center
Thu 04:18:33 PM 38.0589 -80.8425 59° Northeast 186 214 11,900  Level Indianapolis Center
Thu 04:19:35 PM 38.0850 -80.7856 60° Northeast 186 214 11,900  Level Indianapolis Center
Thu 04:20:37 PM 38.1122 -80.7281 59° Northeast 189 217 11,900  Level Indianapolis Center
Thu 04:21:39 PM 38.1436 -80.6589 60° Northeast 189 217 11,900  Level Indianapolis Center
Thu 04:22:41 PM 38.1697 -80.6003 60° Northeast 190 219 11,900  Level Indianapolis Center
Thu 04:23:43 PM 38.2006 -80.5469 54° Northeast 189 217 11,900 52 Level Indianapolis Center
Thu 04:24:36 PM 38.2186 -80.5025 63° Northeast 178 205 12,000 53 Climbing Washington Center
Thu 04:25:36 PM 38.2464 -80.4381 61° Northeast 178 205 12,000  Level Washington Center
Thu 04:26:36 PM 38.2758 -80.3792 57° Northeast 178 205 12,000  Level Washington Center
Thu 04:27:37 PM 38.3011 -80.3225 60° Northeast 178 205 12,000 -49 Level Washington Center
Thu 04:28:38 PM 38.3322 -80.2689 53° Northeast 178 205 11,900  Descending Washington Center
Thu 04:29:36 PM 38.3592 -80.2203 55° Northeast 183 211 12,000 51 Climbing Washington Center
Thu 04:30:36 PM 38.3764 -80.1578 71° East 183 211 12,000  Level Washington Center
Thu 04:31:36 PM 38.3994 -80.0983 64° Northeast 178 205 12,000 50 Level Washington Center
Thu 04:32:37 PM 38.4286 -80.0417 57° Northeast 178 205 12,100  Climbing Washington Center
Thu 04:33:37 PM 38.4539 -79.9769 63° Northeast 178 205 12,000 -50 Descending Washington Center
Thu 04:34:38 PM 38.4789 -79.9228 59° Northeast 178 205 12,000  Level Washington Center
Thu 04:35:38 PM 38.5058 -79.8661 59° Northeast 178 205 12,000  Level Washington Center
Thu 04:36:36 PM 38.5325 -79.8197 54° Northeast 178 205 12,000  Level Washington Center
Thu 04:37:37 PM 38.5675 -79.7767 44° Northeast 178 205 12,000  Level Washington Center
Thu 04:38:38 PM 38.6064 -79.7336 41° Northeast 173 199 12,000  Level Washington Center
Thu 04:39:38 PM 38.6333 -79.6794 57° Northeast 178 205 12,000 50 Level Washington Center
Thu 04:40:38 PM 38.6625 -79.6197 58° Northeast 185 213 12,100  Climbing Washington Center
Thu 04:41:36 PM 38.6894 -79.5628 59° Northeast 185 213 12,000 -51 Descending Washington Center
Thu 04:42:36 PM 38.7183 -79.5083 56° Northeast 185 213 12,000  Level Washington Center
Thu 04:43:38 PM 38.7453 -79.4514 59° Northeast 185 213 12,000  Level Washington Center
Thu 04:44:38 PM 38.7717 -79.4047 54° Northeast 179 206 12,000  Level Washington Center
Thu 04:45:36 PM 38.7986 -79.3422 61° Northeast 185 213 12,000  Level Washington Center
Thu 04:46:38 PM 38.8253 -79.2903 57° Northeast 180 207 12,000  Level Washington Center
Thu 04:47:38 PM 38.8500 -79.2356 60° Northeast 175 201 12,000  Level Washington Center
Thu 04:48:36 PM 38.8725 -79.1781 63° Northeast 175 201 12,000 -153 Level Washington Center
Thu 04:49:36 PM 38.8950 -79.1203 63° Northeast 175 201 11,700 -246 Descending Washington Center
Thu 04:50:38 PM 38.9197 -79.0575 63° Northeast 175 201 11,500 -197 Descending Washington Center
Thu 04:51:38 PM 38.9422 -78.9972 64° Northeast 180 207 11,300 -303 Descending Washington Center
Thu 04:52:37 PM 38.9650 -78.9342 65° Northeast 180 207 10,900 -454 Descending Washington Center
Thu 04:53:37 PM 38.9856 -78.8711 67° East 186 214 10,400 -397 Descending Washington Center
Thu 04:54:38 PM 39.0061 -78.8053 68° East 191 220 10,100 -397 Descending Washington Center
Thu 04:55:38 PM 39.0286 -78.7419 65° Northeast 191 220 9,600 -458 Descending Washington Center
Thu 04:56:36 PM 39.0489 -78.6761 68° East 191 220 9,200 -356 Descending Washington Center
Thu 04:57:36 PM 39.0694 -78.6128 67° East 191 220 8,900 -99 Descending Washington Center
Thu 04:58:37 PM 39.0936 -78.5575 61° Northeast 186 214 9,000  Climbing Washington Center
Thu 04:59:38 PM 39.1139 -78.4969 67° East 180 207 8,900  Descending Washington Center
Thu 05:00:38 PM 39.1342 -78.4389 66° East 180 207 9,000  Climbing Washington Center
Thu 05:01:36 PM 39.1583 -78.3756 64° Northeast 180 207 8,900  Descending Washington Center
Thu 05:02:37 PM 39.1828 -78.3175 61° Northeast 180 207 9,000 -246 Climbing Washington Center
Thu 05:03:38 PM 39.2069 -78.2569 63° Northeast 180 207 8,400 -555 Descending Washington Center
Thu 05:04:36 PM 39.2436 -78.2044 48° Northeast 180 207 7,900 -504 Descending Washington Center
Thu 05:05:37 PM 39.2842 -78.1606 40° Northeast 180 207 7,400 -492 Descending Washington Center
Thu 05:06:38 PM 39.3064 -78.0969 66° East 180 207 6,900 -446 Descending Washington Center
Thu 05:07:38 PM 39.3264 -78.0331 68° East 180 207 6,500 -353 Descending Washington Center
Thu 05:08:37 PM 39.3464 -77.9694 68° East 185 213 6,200 -450 Descending Washington Center
Thu 05:09:38 PM 39.3642 -77.9083 69° East 185 213 5,600 -645 Descending Washington Center
Thu 05:10:38 PM 39.3842 -77.8417 69° East 185 213 4,900 -158 Descending Washington Center
Thu 05:14:03 PM 39.4167 -77.6333 79° East 171 197 4,900  Level Potomac TRACON
Thu 05:15:03 PM 39.4167 -77.5667 90° East 172 198 4,900  Level Potomac TRACON
Thu 05:16:03 PM 39.4333 -77.5167 67° East 171 197 4,900  Level Potomac TRACON
Thu 05:17:04 PM 39.4500 -77.4500 72° East 171 197 4,900 -198 Level Potomac TRACON
Thu 05:18:04 PM 39.4667 -77.4000 67° East 179 206 4,500 -450 Descending Potomac TRACON
Thu 05:19:04 PM 39.4833 -77.3333 72° East 176 203 4,000 -500 Descending Potomac TRACON

Login

Don't have an account? Register now (free) for customized features, flight alerts, and more!